CMB835 Details

Departure: Biggs Army Airfield (Fort Bliss) (KBIF)
Arrival: Joint Base McGuire Dix Lakehurst (KWRI)
Route: CME J26 PNH IFI J8 STL J110 VHP ROD J152 HAR
Notes: USTRANSCOM CONTRACT FLIGHT


Current Weather Information
KBIF 250958Z AUTO 32003KT 10SM CLR 17/M05 A2991 RMK AO2 SLP066 T01671054 $
KWRI 250956Z AUTO 00000KT 7SM CLR 11/10 A3018 RMK AO2 SLP219 T01140100 $